createdAt,value
2018-04-16T00:00:01.460Z,17.97
2018-04-16T00:01:01.435Z,17.98
2018-04-16T00:02:01.575Z,17.97
2018-04-16T00:03:01.492Z,17.95
2018-04-16T00:04:01.423Z,17.97
2018-04-16T00:05:01.467Z,17.95
2018-04-16T00:06:01.514Z,17.98
2018-04-16T00:07:01.443Z,17.98
2018-04-16T00:08:01.396Z,17.97
2018-04-16T00:09:01.439Z,17.98
2018-04-16T00:10:01.416Z,17.97
2018-04-16T00:11:01.640Z,17.97
2018-04-16T00:12:01.485Z,17.95
2018-04-16T00:13:01.395Z,17.97
2018-04-16T00:14:01.354Z,17.93
2018-04-16T00:15:01.529Z,17.97
2018-04-16T00:16:01.590Z,17.95
2018-04-16T00:17:01.425Z,17.95
2018-04-16T00:18:01.650Z,17.97
2018-04-16T00:19:01.499Z,17.98
2018-04-16T00:20:01.613Z,17.95
2018-04-16T00:21:01.552Z,17.97
2018-04-16T00:22:01.598Z,17.95
2018-04-16T00:23:01.632Z,17.94
2018-04-16T00:24:01.332Z,17.95
2018-04-16T00:25:01.769Z,17.97
2018-04-16T00:26:01.567Z,17.95
2018-04-16T00:27:01.485Z,17.95
2018-04-16T00:28:01.558Z,17.98
2018-04-16T00:29:01.604Z,17.94
2018-04-16T00:30:01.574Z,17.95
2018-04-16T00:31:01.373Z,17.97
2018-04-16T00:32:01.681Z,17.94
2018-04-16T00:33:01.386Z,17.97
2018-04-16T00:34:01.561Z,17.97
2018-04-16T00:35:01.339Z,17.91
2018-04-16T00:36:01.437Z,17.95
2018-04-16T00:37:01.497Z,17.94
2018-04-16T00:38:01.338Z,17.94
2018-04-16T00:39:01.538Z,17.94
2018-04-16T00:40:01.396Z,17.95
2018-04-16T00:41:01.766Z,17.94
2018-04-16T00:42:01.507Z,17.95
2018-04-16T00:43:01.617Z,17.95
2018-04-16T00:44:01.402Z,17.97
2018-04-16T00:45:01.464Z,17.97
2018-04-16T00:46:01.453Z,17.98
2018-04-16T00:47:01.542Z,17.94
2018-04-16T00:48:01.529Z,17.94
2018-04-16T00:49:01.413Z,17.95
2018-04-16T00:50:01.641Z,17.93
2018-04-16T00:51:01.610Z,17.95
2018-04-16T00:52:01.423Z,17.94
2018-04-16T00:53:01.454Z,17.93
2018-04-16T00:54:01.531Z,17.94
2018-04-16T00:55:01.434Z,17.95
2018-04-16T00:56:01.485Z,17.93
2018-04-16T00:57:01.549Z,17.95
2018-04-16T00:58:01.559Z,17.94
2018-04-16T00:59:01.424Z,17.93
2018-04-16T01:00:01.515Z,17.94
2018-04-16T01:01:01.467Z,17.94
2018-04-16T01:02:01.492Z,17.91
2018-04-16T01:03:01.358Z,17.91
2018-04-16T01:04:01.695Z,17.94
2018-04-16T01:05:01.707Z,17.91
2018-04-16T01:06:01.570Z,17.94
2018-04-16T01:07:01.460Z,17.94
2018-04-16T01:08:01.377Z,17.91
2018-04-16T01:09:01.382Z,17.94
2018-04-16T01:10:01.412Z,17.94
2018-04-16T01:11:01.589Z,17.89
2018-04-16T01:12:01.575Z,17.91
2018-04-16T01:13:01.559Z,17.94
2018-04-16T01:14:01.478Z,17.89
2018-04-16T01:15:01.562Z,17.93
2018-04-16T01:16:01.535Z,17.91
2018-04-16T01:17:01.423Z,17.89
2018-04-16T01:18:01.437Z,17.93
2018-04-16T01:19:01.529Z,17.91
2018-04-16T01:20:01.497Z,17.93
2018-04-16T01:21:01.566Z,17.91
2018-04-16T01:22:01.588Z,17.93
2018-04-16T01:23:01.428Z,17.89
2018-04-16T01:24:01.671Z,17.89
2018-04-16T01:25:01.626Z,17.91
2018-04-16T01:26:01.478Z,17.91
2018-04-16T01:27:01.483Z,17.93
2018-04-16T01:28:01.331Z,17.93
2018-04-16T01:29:01.394Z,17.89
2018-04-16T01:30:01.495Z,17.91
2018-04-16T01:31:01.418Z,17.94
2018-04-16T01:32:01.436Z,17.88
2018-04-16T01:33:01.429Z,17.89
2018-04-16T01:34:01.555Z,17.93
2018-04-16T01:35:01.514Z,17.89
2018-04-16T01:36:01.654Z,17.89
2018-04-16T01:37:01.562Z,17.91
2018-04-16T01:38:01.362Z,17.88
2018-04-16T01:39:01.539Z,17.91
2018-04-16T01:40:01.417Z,17.91
2018-04-16T01:41:01.562Z,17.87
2018-04-16T01:42:01.451Z,17.89
2018-04-16T01:43:01.498Z,17.89
2018-04-16T01:44:01.529Z,17.88
2018-04-16T01:45:01.596Z,17.89
2018-04-16T01:46:01.484Z,17.89
2018-04-16T01:47:01.519Z,17.85
2018-04-16T01:48:01.436Z,17.87
2018-04-16T01:49:01.349Z,17.89
2018-04-16T01:50:01.423Z,17.88
2018-04-16T01:51:01.541Z,17.91
2018-04-16T01:52:01.437Z,17.87
2018-04-16T01:53:01.352Z,17.87
2018-04-16T01:54:01.390Z,17.91
2018-04-16T01:55:01.402Z,17.89
2018-04-16T01:56:01.522Z,17.91
2018-04-16T01:57:01.586Z,17.89
2018-04-16T01:58:01.404Z,17.91
2018-04-16T01:59:01.561Z,17.87
2018-04-16T02:00:01.766Z,17.88
2018-04-16T02:01:01.547Z,17.89
2018-04-16T02:02:01.415Z,17.85
2018-04-16T02:03:01.553Z,17.87
2018-04-16T02:04:01.392Z,17.89
2018-04-16T02:05:01.419Z,17.87
2018-04-16T02:06:01.306Z,17.89
2018-04-16T02:07:01.585Z,17.89
2018-04-16T02:08:01.557Z,17.85
2018-04-16T02:09:01.513Z,17.89
2018-04-16T02:10:01.453Z,17.88
2018-04-16T02:11:01.461Z,17.88
2018-04-16T02:12:01.497Z,17.89
2018-04-16T02:13:01.447Z,17.88
2018-04-16T02:14:01.428Z,17.87
2018-04-16T02:15:01.505Z,17.88
2018-04-16T02:16:01.566Z,17.88
2018-04-16T02:17:01.315Z,17.85
2018-04-16T02:18:02.559Z,17.87
2018-04-16T02:19:01.342Z,17.88
2018-04-16T02:20:01.536Z,17.87
2018-04-16T02:21:01.576Z,17.87
2018-04-16T02:22:01.370Z,17.88
2018-04-16T02:23:01.318Z,17.87
2018-04-16T02:24:01.383Z,17.85
2018-04-16T02:25:01.515Z,17.87
2018-04-16T02:26:01.517Z,17.85
2018-04-16T02:27:01.420Z,17.89
2018-04-16T02:28:01.586Z,17.87
2018-04-16T02:29:01.467Z,17.87
2018-04-16T02:30:01.390Z,17.88
2018-04-16T02:31:01.490Z,17.88
2018-04-16T02:32:01.503Z,17.85
2018-04-16T02:33:01.588Z,17.88
2018-04-16T02:34:01.461Z,17.85
2018-04-16T02:35:01.569Z,17.85
2018-04-16T02:36:01.409Z,17.88
2018-04-16T02:37:01.396Z,17.85
2018-04-16T02:38:01.572Z,17.85
2018-04-16T02:39:01.633Z,17.87
2018-04-16T02:40:01.473Z,17.88
2018-04-16T02:41:01.438Z,17.84
2018-04-16T02:42:01.544Z,17.87
2018-04-16T02:43:01.375Z,17.88
2018-04-16T02:44:01.546Z,17.84
2018-04-16T02:45:01.400Z,17.84
2018-04-16T02:46:01.543Z,17.87
2018-04-16T02:47:01.623Z,17.85
2018-04-16T02:48:01.522Z,17.87
2018-04-16T02:49:01.463Z,17.87
2018-04-16T02:50:01.468Z,17.85
2018-04-16T02:51:01.348Z,17.87
2018-04-16T02:52:01.515Z,17.88
2018-04-16T02:53:01.399Z,17.82
2018-04-16T02:54:01.462Z,17.85
2018-04-16T02:55:01.604Z,17.85
2018-04-16T02:56:01.282Z,17.85
2018-04-16T02:57:01.520Z,17.85
2018-04-16T02:58:01.608Z,17.87
2018-04-16T02:59:01.492Z,17.84
2018-04-16T03:00:01.551Z,17.85
2018-04-16T03:01:01.584Z,17.84
2018-04-16T03:02:01.301Z,17.85
2018-04-16T03:03:01.417Z,17.85
2018-04-16T03:04:01.401Z,17.85
2018-04-16T03:05:01.563Z,17.84
2018-04-16T03:06:01.522Z,17.88
2018-04-16T03:07:01.381Z,17.85
2018-04-16T03:08:01.378Z,17.85
2018-04-16T03:09:01.390Z,17.84
2018-04-16T03:10:01.453Z,17.85
2018-04-16T03:11:01.510Z,17.84
2018-04-16T03:12:01.538Z,17.84
2018-04-16T03:13:01.487Z,17.85
2018-04-16T03:14:01.513Z,17.84
2018-04-16T03:15:01.471Z,17.82
2018-04-16T03:16:01.472Z,17.84
2018-04-16T03:17:01.569Z,17.82
2018-04-16T03:18:01.348Z,17.85
2018-04-16T03:19:01.425Z,17.84
2018-04-16T03:20:01.555Z,17.85
2018-04-16T03:21:01.325Z,17.87
2018-04-16T03:22:01.384Z,17.84
2018-04-16T03:23:01.358Z,17.81
2018-04-16T03:24:01.357Z,17.87
2018-04-16T03:25:01.514Z,17.82
2018-04-16T03:26:01.508Z,17.82
2018-04-16T03:27:01.442Z,17.82
2018-04-16T03:28:01.461Z,17.87
2018-04-16T03:29:01.482Z,17.82
2018-04-16T03:30:01.568Z,17.84
2018-04-16T03:31:01.300Z,17.84
2018-04-16T03:32:01.546Z,17.81
2018-04-16T03:33:01.494Z,17.84
2018-04-16T03:34:01.578Z,17.85
2018-04-16T03:35:01.561Z,17.82
2018-04-16T03:36:01.402Z,17.81
2018-04-16T03:37:01.569Z,17.81
2018-04-16T03:38:01.520Z,17.82
2018-04-16T03:39:01.389Z,17.84
2018-04-16T03:40:01.524Z,17.82
2018-04-16T03:41:01.408Z,17.81
2018-04-16T03:42:01.362Z,17.82
2018-04-16T03:43:01.523Z,17.82
2018-04-16T03:44:01.369Z,17.8
2018-04-16T03:45:01.485Z,17.81
2018-04-16T03:46:01.275Z,17.84
2018-04-16T03:47:01.448Z,17.81
2018-04-16T03:48:01.558Z,17.82
2018-04-16T03:49:01.510Z,17.84
2018-04-16T03:50:01.463Z,17.8
2018-04-16T03:51:01.371Z,17.81
2018-04-16T03:52:01.504Z,17.84
2018-04-16T03:53:01.524Z,17.81
2018-04-16T03:54:01.545Z,17.82
2018-04-16T03:55:01.548Z,17.84
2018-04-16T03:56:01.392Z,17.81
2018-04-16T03:57:01.494Z,17.81
2018-04-16T03:58:01.390Z,17.82
2018-04-16T03:59:01.482Z,17.84
2018-04-16T04:00:01.575Z,17.81
2018-04-16T04:01:01.451Z,17.82
2018-04-16T04:02:01.448Z,17.78
2018-04-16T04:03:01.485Z,17.81
2018-04-16T04:04:01.366Z,17.8
2018-04-16T04:05:01.492Z,17.8
2018-04-16T04:06:01.453Z,17.8
2018-04-16T04:07:01.455Z,17.81
2018-04-16T04:08:01.339Z,17.8
2018-04-16T04:09:01.429Z,17.8
2018-04-16T04:10:01.612Z,17.84
2018-04-16T04:11:03.062Z,17.8
2018-04-16T04:12:01.443Z,17.82
2018-04-16T04:13:01.465Z,17.81
2018-04-16T04:14:01.358Z,17.8
2018-04-16T04:15:01.431Z,17.81
2018-04-16T04:16:01.446Z,17.81
2018-04-16T04:17:01.335Z,17.77
2018-04-16T04:18:01.609Z,17.81
2018-04-16T04:19:01.590Z,17.81
2018-04-16T04:20:01.597Z,17.8
2018-04-16T04:21:01.304Z,17.81
2018-04-16T04:22:01.318Z,17.82
2018-04-16T04:23:01.519Z,17.78
2018-04-16T04:24:01.275Z,17.8
2018-04-16T04:25:01.841Z,17.84
2018-04-16T04:26:01.424Z,17.8
2018-04-16T04:27:01.300Z,17.82
2018-04-16T04:28:01.459Z,17.81
2018-04-16T04:29:01.337Z,17.8
2018-04-16T04:30:01.381Z,17.84
2018-04-16T04:31:01.455Z,17.81
2018-04-16T04:32:01.447Z,17.78
2018-04-16T04:33:01.456Z,17.81
2018-04-16T04:34:01.487Z,17.8
2018-04-16T04:35:01.417Z,17.8
2018-04-16T04:36:01.568Z,17.8
2018-04-16T04:37:01.469Z,17.81
2018-04-16T04:38:01.492Z,17.81
2018-04-16T04:39:01.477Z,17.8
2018-04-16T04:40:01.279Z,17.81
2018-04-16T04:41:01.373Z,17.8
2018-04-16T04:42:01.546Z,17.8
2018-04-16T04:43:01.397Z,17.82
2018-04-16T04:44:01.455Z,17.8
2018-04-16T04:45:01.457Z,17.82
2018-04-16T04:46:01.460Z,17.82
2018-04-16T04:47:01.669Z,17.8
2018-04-16T04:48:01.391Z,17.81
2018-04-16T04:49:01.305Z,17.8
2018-04-16T04:50:01.411Z,17.8
2018-04-16T04:51:01.442Z,17.81
2018-04-16T04:52:01.506Z,17.82
2018-04-16T04:53:01.798Z,17.8
2018-04-16T04:54:01.501Z,17.8
2018-04-16T04:55:01.335Z,17.8
2018-04-16T04:56:01.472Z,17.77
2018-04-16T04:57:01.265Z,17.81
2018-04-16T04:58:01.538Z,17.81
2018-04-16T04:59:01.510Z,17.8
2018-04-16T05:00:01.354Z,17.81
2018-04-16T05:01:01.651Z,17.82
2018-04-16T05:02:01.284Z,17.8
2018-04-16T05:03:01.462Z,17.81
2018-04-16T05:04:01.425Z,17.81
2018-04-16T05:05:01.310Z,17.81
2018-04-16T05:06:01.724Z,17.81
2018-04-16T05:07:01.596Z,17.84
2018-04-16T05:08:01.349Z,17.82
2018-04-16T05:09:01.452Z,17.81
2018-04-16T05:10:01.350Z,17.8
2018-04-16T05:11:01.420Z,17.81
2018-04-16T05:12:01.532Z,17.81
2018-04-16T05:13:01.492Z,17.82
2018-04-16T05:14:01.319Z,17.8
2018-04-16T05:15:01.446Z,17.81
2018-04-16T05:16:01.558Z,17.81
2018-04-16T05:17:01.419Z,17.81
2018-04-16T05:18:01.384Z,17.81
2018-04-16T05:19:01.533Z,17.82
2018-04-16T05:20:01.529Z,17.8
2018-04-16T05:21:01.489Z,17.82
2018-04-16T05:22:01.346Z,17.81
2018-04-16T05:23:01.401Z,17.8
2018-04-16T05:24:01.313Z,17.82
2018-04-16T05:25:01.551Z,17.8
2018-04-16T05:26:01.477Z,17.81
2018-04-16T05:27:01.246Z,17.8
2018-04-16T05:28:01.477Z,17.81
2018-04-16T05:29:01.485Z,17.8
2018-04-16T05:30:01.472Z,17.82
2018-04-16T05:31:01.363Z,17.82
2018-04-16T05:32:01.478Z,17.8
2018-04-16T05:33:01.344Z,17.81
2018-04-16T05:34:01.546Z,17.81
2018-04-16T05:35:01.455Z,17.78
2018-04-16T05:36:01.357Z,17.81
2018-04-16T05:37:01.476Z,17.82
2018-04-16T05:38:01.546Z,17.8
2018-04-16T05:39:01.473Z,17.8
2018-04-16T05:40:01.516Z,17.81
2018-04-16T05:41:01.422Z,17.81
2018-04-16T05:42:01.463Z,17.84
2018-04-16T05:43:01.519Z,17.84
2018-04-16T05:44:01.489Z,17.81
2018-04-16T05:45:01.372Z,17.82
2018-04-16T05:46:01.368Z,17.84
2018-04-16T05:47:01.433Z,17.78
2018-04-16T05:48:01.295Z,17.82
2018-04-16T05:49:01.526Z,17.82
2018-04-16T05:50:01.396Z,17.8
2018-04-16T05:51:01.290Z,17.82
2018-04-16T05:52:01.253Z,17.82
2018-04-16T05:53:01.460Z,17.81
2018-04-16T05:54:01.274Z,17.82
2018-04-16T05:55:01.329Z,17.82
2018-04-16T05:56:01.278Z,17.8
2018-04-16T05:57:01.338Z,17.82
2018-04-16T05:58:01.419Z,17.84
2018-04-16T05:59:01.404Z,17.82
2018-04-16T06:00:03.520Z,17.8
2018-04-16T06:01:01.443Z,17.82
2018-04-16T06:02:01.513Z,17.81
2018-04-16T06:03:01.446Z,17.8
2018-04-16T06:04:01.481Z,17.85
2018-04-16T06:05:01.446Z,17.78
2018-04-16T06:06:01.431Z,17.82
2018-04-16T06:07:01.297Z,17.81
2018-04-16T06:08:01.439Z,17.82
2018-04-16T06:09:01.451Z,17.82
2018-04-16T06:10:01.663Z,17.81
2018-04-16T06:11:01.304Z,17.8
2018-04-16T06:12:01.413Z,17.82
2018-04-16T06:13:01.231Z,17.81
2018-04-16T06:14:01.450Z,17.8
2018-04-16T06:15:01.414Z,17.82
2018-04-16T06:16:01.471Z,17.84
2018-04-16T06:17:01.321Z,17.8
2018-04-16T06:18:01.356Z,17.81
2018-04-16T06:19:01.708Z,17.81
2018-04-16T06:20:01.450Z,17.8
2018-04-16T06:21:01.385Z,17.81
2018-04-16T06:22:01.424Z,17.82
2018-04-16T06:23:01.458Z,17.81
2018-04-16T06:24:01.303Z,17.81
2018-04-16T06:25:01.428Z,17.82
2018-04-16T06:26:01.253Z,17.8
2018-04-16T06:27:01.431Z,17.81
2018-04-16T06:28:01.319Z,17.82
2018-04-16T06:29:01.480Z,17.78
2018-04-16T06:30:01.357Z,17.82
2018-04-16T06:31:01.430Z,17.82
2018-04-16T06:32:01.305Z,17.8
2018-04-16T06:33:01.472Z,17.81
2018-04-16T06:34:01.476Z,17.81
2018-04-16T06:35:01.424Z,17.82
2018-04-16T06:36:01.474Z,17.81
2018-04-16T06:37:01.784Z,17.8
2018-04-16T06:38:01.258Z,17.8
2018-04-16T06:39:01.426Z,17.82
2018-04-16T06:40:01.388Z,17.81
2018-04-16T06:41:01.398Z,17.81
2018-04-16T06:42:01.406Z,17.8
2018-04-16T06:43:01.337Z,17.82
2018-04-16T06:44:01.452Z,17.78
2018-04-16T06:45:01.443Z,17.82
2018-04-16T06:46:01.456Z,17.81
2018-04-16T06:47:01.370Z,17.8
2018-04-16T06:48:01.228Z,17.81
2018-04-16T06:49:01.366Z,17.85
2018-04-16T06:50:01.372Z,17.78
2018-04-16T06:51:01.412Z,17.81
2018-04-16T06:52:01.378Z,17.84
2018-04-16T06:53:01.282Z,17.78
2018-04-16T06:54:01.415Z,17.81
2018-04-16T06:55:01.719Z,17.82
2018-04-16T06:56:01.493Z,17.78
2018-04-16T06:57:01.252Z,17.82
2018-04-16T06:58:01.371Z,17.82
2018-04-16T06:59:01.260Z,17.81
2018-04-16T07:00:01.505Z,17.82
2018-04-16T07:01:01.648Z,17.8
2018-04-16T07:02:02.001Z,17.81
2018-04-16T07:03:01.219Z,17.81
2018-04-16T07:04:01.734Z,17.84
2018-04-16T07:05:01.563Z,17.8
2018-04-16T07:06:01.268Z,17.81
2018-04-16T07:07:01.503Z,17.81
2018-04-16T07:08:01.566Z,17.78
2018-04-16T07:09:01.368Z,17.82
2018-04-16T07:10:01.364Z,17.84
2018-04-16T07:11:01.224Z,17.77
2018-04-16T07:12:01.452Z,17.84
2018-04-16T07:13:01.273Z,17.81
2018-04-16T07:14:01.553Z,17.81
2018-04-16T07:15:01.443Z,17.81
2018-04-16T07:16:01.710Z,17.82
2018-04-16T07:17:01.486Z,17.78
2018-04-16T07:18:01.495Z,17.8
2018-04-16T07:19:01.506Z,17.84
2018-04-16T07:20:01.659Z,17.78
2018-04-16T07:21:01.459Z,17.81
2018-04-16T07:22:01.424Z,17.82
2018-04-16T07:23:01.599Z,17.81
2018-04-16T07:24:01.414Z,17.82
2018-04-16T07:25:01.403Z,17.82
2018-04-16T07:26:01.522Z,17.8
2018-04-16T07:27:01.702Z,17.81
2018-04-16T07:28:01.229Z,17.81
2018-04-16T07:29:01.422Z,17.8
2018-04-16T07:30:01.468Z,17.81
2018-04-16T07:31:01.250Z,17.81
2018-04-16T07:32:01.329Z,17.78
2018-04-16T07:33:01.376Z,17.81
2018-04-16T07:34:01.322Z,17.81
2018-04-16T07:35:01.463Z,17.77
2018-04-16T07:36:01.479Z,17.82
2018-04-16T07:37:01.620Z,17.81
2018-04-16T07:38:01.408Z,17.78
2018-04-16T07:39:01.526Z,17.84
2018-04-16T07:40:01.537Z,17.81
2018-04-16T07:41:01.374Z,17.78
2018-04-16T07:42:01.270Z,17.8
2018-04-16T07:43:01.391Z,17.81
2018-04-16T07:44:01.430Z,17.77
2018-04-16T07:45:01.519Z,17.81
2018-04-16T07:46:01.252Z,17.8
2018-04-16T07:47:01.304Z,17.8
2018-04-16T07:48:01.433Z,17.8
2018-04-16T07:49:01.791Z,17.8
2018-04-16T07:50:01.361Z,17.8
2018-04-16T07:51:01.458Z,17.8
2018-04-16T07:52:01.268Z,17.81
2018-04-16T07:53:01.191Z,17.78
2018-04-16T07:54:01.269Z,17.8
2018-04-16T07:55:01.382Z,17.81
2018-04-16T07:56:01.438Z,17.78
2018-04-16T07:57:01.246Z,17.78
2018-04-16T07:58:01.484Z,17.81
2018-04-16T07:59:01.354Z,17.77
2018-04-16T08:00:01.278Z,17.8
2018-04-16T08:01:01.406Z,17.8
2018-04-16T08:02:01.474Z,17.78
2018-04-16T08:03:01.413Z,17.8
2018-04-16T08:04:01.312Z,17.81
2018-04-16T08:05:01.351Z,17.78
2018-04-16T08:06:01.408Z,17.81
2018-04-16T08:07:01.326Z,17.78
2018-04-16T08:08:01.336Z,17.78
2018-04-16T08:09:01.347Z,17.8
2018-04-16T08:10:01.904Z,17.8
2018-04-16T08:11:01.765Z,17.78
2018-04-16T08:12:01.263Z,17.78
2018-04-16T08:13:01.518Z,17.8
2018-04-16T08:14:01.302Z,17.78
2018-04-16T08:15:01.311Z,17.82
2018-04-16T08:16:01.695Z,17.81
2018-04-16T08:17:01.398Z,17.78
2018-04-16T08:18:01.210Z,17.8
2018-04-16T08:19:01.321Z,17.81
2018-04-16T08:20:01.275Z,17.78
2018-04-16T08:21:03.419Z,17.78
2018-04-16T08:22:01.397Z,17.81
2018-04-16T08:23:01.265Z,17.78
2018-04-16T08:24:01.216Z,17.8
2018-04-16T08:25:01.322Z,17.8
2018-04-16T08:26:01.329Z,17.77
2018-04-16T08:27:01.871Z,17.81
2018-04-16T08:28:01.291Z,17.8
2018-04-16T08:29:01.361Z,17.78
2018-04-16T08:30:01.482Z,17.81
2018-04-16T08:31:01.271Z,17.8
2018-04-16T08:32:01.319Z,17.78
2018-04-16T08:33:01.221Z,17.8
2018-04-16T08:34:01.204Z,17.8
2018-04-16T08:35:01.315Z,17.77
2018-04-16T08:36:01.393Z,17.78
2018-04-16T08:37:01.288Z,17.78
2018-04-16T08:38:01.405Z,17.76
2018-04-16T08:39:01.408Z,17.78
2018-04-16T08:40:01.355Z,17.8
2018-04-16T08:41:01.316Z,17.78
2018-04-16T08:42:01.347Z,17.8
2018-04-16T08:43:01.490Z,17.78
2018-04-16T08:44:01.331Z,17.77
2018-04-16T08:45:01.427Z,17.8
2018-04-16T08:46:01.259Z,17.78
2018-04-16T08:47:01.291Z,17.77
2018-04-16T08:48:01.303Z,17.78
2018-04-16T08:49:01.357Z,17.78
2018-04-16T08:50:01.245Z,17.78
2018-04-16T08:51:01.232Z,17.78
2018-04-16T08:52:01.249Z,17.8
2018-04-16T08:53:01.196Z,17.76
2018-04-16T08:54:01.372Z,17.8
2018-04-16T08:55:01.274Z,17.78
2018-04-16T08:56:01.422Z,17.78
2018-04-16T08:57:01.264Z,17.78
2018-04-16T08:58:01.415Z,17.8
2018-04-16T08:59:01.206Z,17.78
2018-04-16T09:00:01.340Z,17.78
2018-04-16T09:01:01.345Z,17.78
2018-04-16T09:02:01.456Z,17.77
2018-04-16T09:03:01.423Z,17.8
2018-04-16T09:04:01.295Z,17.78
2018-04-16T09:05:01.432Z,17.78
2018-04-16T09:06:01.238Z,17.78
2018-04-16T09:07:01.320Z,17.78
2018-04-16T09:08:01.408Z,17.77
2018-04-16T09:09:01.516Z,17.8
2018-04-16T09:10:01.405Z,17.78
2018-04-16T09:11:01.403Z,17.77
2018-04-16T09:12:01.323Z,17.77
2018-04-16T09:13:01.371Z,17.78
2018-04-16T09:14:01.170Z,17.77
2018-04-16T09:15:01.245Z,17.78
2018-04-16T09:16:01.355Z,17.78
2018-04-16T09:17:01.200Z,17.77
2018-04-16T09:18:01.331Z,17.78
2018-04-16T09:19:01.339Z,17.78
2018-04-16T09:20:01.371Z,17.77
2018-04-16T09:21:01.373Z,17.78
2018-04-16T09:22:01.289Z,17.78
2018-04-16T09:23:01.394Z,17.77
2018-04-16T09:24:01.195Z,17.8
2018-04-16T09:25:01.302Z,17.78
2018-04-16T09:26:01.393Z,17.76
2018-04-16T09:27:01.391Z,17.8
2018-04-16T09:28:01.401Z,17.78
2018-04-16T09:29:01.352Z,17.77
2018-04-16T09:30:01.302Z,17.77
2018-04-16T09:31:01.274Z,17.8
2018-04-16T09:32:01.389Z,17.77
2018-04-16T09:33:01.871Z,17.77
2018-04-16T09:34:01.452Z,17.78
2018-04-16T09:35:01.236Z,17.76
2018-04-16T09:36:01.298Z,17.78
2018-04-16T09:37:01.233Z,17.78
2018-04-16T09:38:01.607Z,17.77
2018-04-16T09:39:01.188Z,17.78
2018-04-16T09:40:01.323Z,17.77
2018-04-16T09:41:01.358Z,17.84
2018-04-16T09:42:01.270Z,17.88
2018-04-16T09:43:01.193Z,17.85
2018-04-16T09:44:01.319Z,17.85
2018-04-16T09:45:01.361Z,17.85
2018-04-16T09:46:01.160Z,17.89
2018-04-16T09:47:01.292Z,17.88
2018-04-16T09:48:01.313Z,17.93
2018-04-16T09:49:01.212Z,17.89
2018-04-16T09:50:01.373Z,17.91
2018-04-16T09:51:01.300Z,17.89
2018-04-16T09:52:01.286Z,17.88
2018-04-16T09:53:01.191Z,17.89
2018-04-16T09:54:01.472Z,17.91
2018-04-16T09:55:01.378Z,17.93
2018-04-16T09:56:01.345Z,17.87
2018-04-16T09:57:01.280Z,17.89
2018-04-16T09:58:01.430Z,17.89
2018-04-16T09:59:01.312Z,17.91
2018-04-16T10:00:01.414Z,17.91
2018-04-16T10:01:01.425Z,17.88
2018-04-16T10:02:01.318Z,17.88
2018-04-16T10:03:01.380Z,17.89
2018-04-16T10:04:01.414Z,17.94
2018-04-16T10:05:01.193Z,17.87
2018-04-16T10:06:01.666Z,17.91
2018-04-16T10:07:01.410Z,17.94
2018-04-16T10:08:01.228Z,17.94
2018-04-16T10:09:01.409Z,17.94
2018-04-16T10:10:01.341Z,17.97
2018-04-16T10:11:01.239Z,18
2018-04-16T10:12:01.281Z,18.04
2018-04-16T10:13:01.429Z,18.01
2018-04-16T10:14:01.200Z,18.02
2018-04-16T10:15:01.354Z,18.01
2018-04-16T10:16:01.419Z,18.04
2018-04-16T10:17:01.321Z,17.98
2018-04-16T10:18:01.796Z,18
2018-04-16T10:19:01.311Z,18.01
2018-04-16T10:20:01.485Z,18
2018-04-16T10:21:01.364Z,17.98
2018-04-16T10:22:01.277Z,17.98
2018-04-16T10:23:01.505Z,17.94
2018-04-16T10:24:01.517Z,17.97
2018-04-16T10:25:01.336Z,17.98
2018-04-16T10:26:01.202Z,17.93
2018-04-16T10:27:01.253Z,17.95
2018-04-16T10:28:01.304Z,17.95
2018-04-16T10:29:01.206Z,17.93
2018-04-16T10:30:01.269Z,17.91
2018-04-16T10:31:01.364Z,17.91
2018-04-16T10:32:01.296Z,17.91
2018-04-16T10:33:01.380Z,17.89
2018-04-16T10:34:01.385Z,17.94
2018-04-16T10:35:01.244Z,17.89
2018-04-16T10:36:01.172Z,17.93
2018-04-16T10:37:01.345Z,17.93
2018-04-16T10:38:01.306Z,17.87
2018-04-16T10:39:01.229Z,17.89
2018-04-16T10:40:01.193Z,17.89
2018-04-16T10:41:01.720Z,17.89
2018-04-16T10:42:03.390Z,17.89
2018-04-16T10:43:01.268Z,17.88
2018-04-16T10:44:01.233Z,17.88
2018-04-16T10:45:01.283Z,17.89
2018-04-16T10:46:01.198Z,17.88
2018-04-16T10:47:01.276Z,17.85
2018-04-16T10:48:01.384Z,17.89
2018-04-16T10:49:01.405Z,17.88
2018-04-16T10:50:01.382Z,17.88
2018-04-16T10:51:01.409Z,17.88
2018-04-16T10:52:01.191Z,17.87
2018-04-16T10:53:01.265Z,17.87
2018-04-16T10:54:01.119Z,17.87
2018-04-16T10:55:01.239Z,17.88
2018-04-16T10:56:01.364Z,17.87
2018-04-16T10:57:01.281Z,17.89
2018-04-16T10:58:01.576Z,17.88
2018-04-16T10:59:01.281Z,17.85
2018-04-16T11:00:01.295Z,17.87
2018-04-16T11:01:01.371Z,17.85
2018-04-16T11:02:01.331Z,17.82
2018-04-16T11:03:01.288Z,17.88
2018-04-16T11:04:01.269Z,17.87
2018-04-16T11:05:01.316Z,17.84
2018-04-16T11:06:01.397Z,17.85
2018-04-16T11:07:01.166Z,17.84
2018-04-16T11:08:01.267Z,17.85
2018-04-16T11:09:01.347Z,17.84
2018-04-16T11:10:01.456Z,17.85
2018-04-16T11:11:01.190Z,17.81
2018-04-16T11:12:01.304Z,17.84
2018-04-16T11:13:01.528Z,17.87
2018-04-16T11:14:01.273Z,17.84
2018-04-16T11:15:01.403Z,17.84
2018-04-16T11:16:01.419Z,17.85
2018-04-16T11:17:01.419Z,17.82
2018-04-16T11:18:01.377Z,17.84
2018-04-16T11:19:01.321Z,17.84
2018-04-16T11:20:01.156Z,17.82
2018-04-16T11:21:01.299Z,17.84
2018-04-16T11:22:01.379Z,17.85
2018-04-16T11:23:01.222Z,17.82
2018-04-16T11:24:01.371Z,17.87
2018-04-16T11:25:01.225Z,17.87
2018-04-16T11:26:01.301Z,17.82
2018-04-16T11:27:01.291Z,17.82
2018-04-16T11:28:01.240Z,17.82
2018-04-16T11:29:01.389Z,17.81
2018-04-16T11:30:01.249Z,17.82
2018-04-16T11:31:01.237Z,17.82
2018-04-16T11:32:01.247Z,17.81
2018-04-16T11:33:01.342Z,17.82
2018-04-16T11:34:01.300Z,17.84
2018-04-16T11:35:01.388Z,17.82
2018-04-16T11:36:01.418Z,17.87
2018-04-16T11:37:01.187Z,17.84
2018-04-16T11:38:01.627Z,17.8
2018-04-16T11:39:01.358Z,17.82
2018-04-16T11:40:01.227Z,17.85
2018-04-16T11:41:01.262Z,17.81
2018-04-16T11:42:01.274Z,17.82
2018-04-16T11:43:01.228Z,17.84
2018-04-16T11:44:01.316Z,17.81
2018-04-16T11:45:02.629Z,17.81
2018-04-16T11:46:01.193Z,17.82
2018-04-16T11:47:01.295Z,17.82
2018-04-16T11:48:01.322Z,17.81
2018-04-16T11:49:01.246Z,17.81
2018-04-16T11:50:01.198Z,17.8
2018-04-16T11:51:01.303Z,17.84
2018-04-16T11:52:01.364Z,17.82
2018-04-16T11:53:01.434Z,17.81
2018-04-16T11:54:01.352Z,17.84
2018-04-16T11:55:01.413Z,17.85
2018-04-16T11:56:01.381Z,17.84
2018-04-16T11:57:01.301Z,17.84
2018-04-16T11:58:01.252Z,17.84
2018-04-16T11:59:01.248Z,17.84
2018-04-16T12:00:01.229Z,17.84
2018-04-16T12:01:01.239Z,17.84
2018-04-16T12:02:01.155Z,17.82
2018-04-16T12:03:01.410Z,17.82
2018-04-16T12:04:01.256Z,17.84
2018-04-16T12:05:01.337Z,17.8
2018-04-16T12:06:01.181Z,17.84
2018-04-16T12:07:01.222Z,17.85
2018-04-16T12:08:01.366Z,17.8
2018-04-16T12:09:01.264Z,17.84
2018-04-16T12:10:01.143Z,17.84
2018-04-16T12:11:01.406Z,17.81
2018-04-16T12:12:01.250Z,17.8
2018-04-16T12:13:01.301Z,17.84
2018-04-16T12:14:01.276Z,17.8
2018-04-16T12:15:01.406Z,17.84
2018-04-16T12:16:01.327Z,17.82
2018-04-16T12:17:01.285Z,17.81
2018-04-16T12:18:01.292Z,17.81
2018-04-16T12:19:01.372Z,17.84
2018-04-16T12:20:01.336Z,17.8
2018-04-16T12:21:01.266Z,17.85
2018-04-16T12:22:01.200Z,17.82
2018-04-16T12:23:01.281Z,17.81
2018-04-16T12:24:01.147Z,17.81
2018-04-16T12:25:01.226Z,17.82
2018-04-16T12:26:01.326Z,17.8
2018-04-16T12:27:01.330Z,17.81
2018-04-16T12:28:01.367Z,17.81
2018-04-16T12:29:01.147Z,17.78
2018-04-16T12:30:01.340Z,17.8
2018-04-16T12:31:01.374Z,17.84
2018-04-16T12:32:01.108Z,17.8
2018-04-16T12:33:01.642Z,17.81
2018-04-16T12:34:01.280Z,17.84
2018-04-16T12:35:01.309Z,17.8
2018-04-16T12:36:01.299Z,17.8
2018-04-16T12:37:01.198Z,17.81
2018-04-16T12:38:01.418Z,17.8
2018-04-16T12:39:01.297Z,17.81
2018-04-16T12:40:01.243Z,17.81
2018-04-16T12:41:01.498Z,17.78
2018-04-16T12:42:01.453Z,17.81
2018-04-16T12:43:01.408Z,17.8
2018-04-16T12:44:01.315Z,17.77
2018-04-16T12:45:01.213Z,17.82
2018-04-16T12:46:01.286Z,17.81
2018-04-16T12:47:01.360Z,17.78
2018-04-16T12:48:01.563Z,17.8
2018-04-16T12:49:01.288Z,17.82
2018-04-16T12:50:01.592Z,17.8
2018-04-16T12:51:01.229Z,17.8
2018-04-16T12:52:01.290Z,17.78
2018-04-16T12:53:01.335Z,17.78
2018-04-16T12:54:01.352Z,17.81
2018-04-16T12:55:01.408Z,17.81
2018-04-16T12:56:01.244Z,17.8